sensor_id;sensor_type;location;lat;lon;timestamp;P1;durP1;ratioP1;P2;durP2;ratioP2
78322;SDS011;67583;50.616;-3.404;2023-12-20T00:04:05;18.13;;;3.37;;
78322;SDS011;67583;50.616;-3.404;2023-12-20T00:08:56;11.90;;;2.28;;
78322;SDS011;67583;50.616;-3.404;2023-12-20T00:11:23;12.32;;;2.90;;
78322;SDS011;67583;50.616;-3.404;2023-12-20T00:13:48;13.57;;;2.58;;
78322;SDS011;67583;50.616;-3.404;2023-12-20T00:18:39;6.30;;;2.17;;
78322;SDS011;67583;50.616;-3.404;2023-12-20T00:23:29;11.50;;;2.80;;
78322;SDS011;67583;50.616;-3.404;2023-12-20T00:28:20;5.40;;;2.80;;
78322;SDS011;67583;50.616;-3.404;2023-12-20T00:33:11;16.00;;;2.93;;
78322;SDS011;67583;50.616;-3.404;2023-12-20T00:38:02;6.37;;;1.83;;
78322;SDS011;67583;50.616;-3.404;2023-12-20T00:42:52;13.43;;;2.93;;
78322;SDS011;67583;50.616;-3.404;2023-12-20T00:47:43;15.52;;;3.72;;
78322;SDS011;67583;50.616;-3.404;2023-12-20T00:50:09;13.13;;;3.42;;
78322;SDS011;67583;50.616;-3.404;2023-12-20T00:52:34;11.05;;;2.17;;
78322;SDS011;67583;50.616;-3.404;2023-12-20T00:55:00;14.55;;;2.85;;
78322;SDS011;67583;50.616;-3.404;2023-12-20T00:57:25;12.80;;;2.67;;
78322;SDS011;67583;50.616;-3.404;2023-12-20T00:59:51;12.15;;;2.55;;
78322;SDS011;67583;50.616;-3.404;2023-12-20T01:04:41;15.57;;;2.60;;
78322;SDS011;67583;50.616;-3.404;2023-12-20T01:09:33;13.88;;;2.78;;
78322;SDS011;67583;50.616;-3.404;2023-12-20T01:14:24;10.50;;;2.40;;
78322;SDS011;67583;50.616;-3.404;2023-12-20T01:19:14;11.53;;;3.43;;
78322;SDS011;67583;50.616;-3.404;2023-12-20T01:24:05;13.73;;;2.70;;
78322;SDS011;67583;50.616;-3.404;2023-12-20T01:26:30;14.07;;;2.83;;
78322;SDS011;67583;50.616;-3.404;2023-12-20T01:28:56;12.15;;;2.80;;
78322;SDS011;67583;50.616;-3.404;2023-12-20T01:31:21;8.57;;;2.20;;
78322;SDS011;67583;50.616;-3.404;2023-12-20T01:33:46;13.57;;;2.47;;
78322;SDS011;67583;50.616;-3.404;2023-12-20T01:36:12;9.10;;;2.42;;
78322;SDS011;67583;50.616;-3.404;2023-12-20T01:38:37;12.10;;;3.13;;
78322;SDS011;67583;50.616;-3.404;2023-12-20T01:41:03;12.77;;;3.00;;
78322;SDS011;67583;50.616;-3.404;2023-12-20T01:43:29;8.93;;;2.00;;
78322;SDS011;67583;50.616;-3.404;2023-12-20T01:48:20;14.80;;;3.40;;
78322;SDS011;67583;50.616;-3.404;2023-12-20T01:50:46;12.30;;;2.30;;
78322;SDS011;67583;50.616;-3.404;2023-12-20T01:53:12;9.30;;;3.22;;
78322;SDS011;67583;50.616;-3.404;2023-12-20T01:55:39;9.75;;;2.60;;
78322;SDS011;67583;50.616;-3.404;2023-12-20T01:58:06;11.23;;;2.92;;
78322;SDS011;67583;50.616;-3.404;2023-12-20T02:00:36;12.40;;;4.05;;
78322;SDS011;67583;50.616;-3.404;2023-12-20T02:03:02;14.15;;;3.45;;
78322;SDS011;67583;50.616;-3.404;2023-12-20T02:05:29;12.00;;;2.78;;
78322;SDS011;67583;50.616;-3.404;2023-12-20T02:07:55;11.25;;;2.38;;
78322;SDS011;67583;50.616;-3.404;2023-12-20T02:10:21;21.00;;;3.70;;
78322;SDS011;67583;50.616;-3.404;2023-12-20T02:12:46;8.48;;;2.88;;
78322;SDS011;67583;50.616;-3.404;2023-12-20T02:15:11;14.65;;;3.15;;
78322;SDS011;67583;50.616;-3.404;2023-12-20T02:17:37;15.05;;;3.33;;
78322;SDS011;67583;50.616;-3.404;2023-12-20T02:20:03;10.73;;;3.85;;
78322;SDS011;67583;50.616;-3.404;2023-12-20T02:22:30;11.18;;;2.75;;
78322;SDS011;67583;50.616;-3.404;2023-12-20T02:24:56;15.57;;;3.17;;
78322;SDS011;67583;50.616;-3.404;2023-12-20T02:27:21;15.68;;;2.88;;
78322;SDS011;67583;50.616;-3.404;2023-12-20T02:29:48;10.80;;;2.63;;
78322;SDS011;67583;50.616;-3.404;2023-12-20T02:32:14;9.38;;;3.50;;
78322;SDS011;67583;50.616;-3.404;2023-12-20T02:34:41;23.58;;;4.50;;
78322;SDS011;67583;50.616;-3.404;2023-12-20T02:37:06;11.05;;;3.00;;
78322;SDS011;67583;50.616;-3.404;2023-12-20T02:39:32;12.55;;;2.78;;
78322;SDS011;67583;50.616;-3.404;2023-12-20T02:41:58;10.30;;;3.03;;
78322;SDS011;67583;50.616;-3.404;2023-12-20T02:44:23;12.02;;;2.55;;
78322;SDS011;67583;50.616;-3.404;2023-12-20T02:46:49;11.95;;;3.20;;
78322;SDS011;67583;50.616;-3.404;2023-12-20T02:49:15;7.53;;;2.30;;
78322;SDS011;67583;50.616;-3.404;2023-12-20T02:51:40;15.63;;;3.50;;
78322;SDS011;67583;50.616;-3.404;2023-12-20T02:54:05;14.52;;;2.75;;
78322;SDS011;67583;50.616;-3.404;2023-12-20T02:56:34;11.45;;;3.15;;
78322;SDS011;67583;50.616;-3.404;2023-12-20T02:58:59;9.07;;;2.13;;
78322;SDS011;67583;50.616;-3.404;2023-12-20T03:01:25;7.70;;;2.72;;
78322;SDS011;67583;50.616;-3.404;2023-12-20T03:03:51;12.52;;;2.80;;
78322;SDS011;67583;50.616;-3.404;2023-12-20T03:06:17;12.48;;;2.47;;
78322;SDS011;67583;50.616;-3.404;2023-12-20T03:08:43;10.63;;;3.03;;
78322;SDS011;67583;50.616;-3.404;2023-12-20T03:11:09;8.20;;;2.78;;
78322;SDS011;67583;50.616;-3.404;2023-12-20T03:13:34;11.07;;;2.25;;
78322;SDS011;67583;50.616;-3.404;2023-12-20T03:16:00;17.90;;;3.60;;
78322;SDS011;67583;50.616;-3.404;2023-12-20T03:18:25;16.63;;;3.17;;
78322;SDS011;67583;50.616;-3.404;2023-12-20T03:20:53;5.68;;;2.17;;
78322;SDS011;67583;50.616;-3.404;2023-12-20T03:23:18;12.82;;;3.10;;
78322;SDS011;67583;50.616;-3.404;2023-12-20T03:25:43;15.77;;;3.13;;
78322;SDS011;67583;50.616;-3.404;2023-12-20T03:28:09;12.75;;;3.17;;
78322;SDS011;67583;50.616;-3.404;2023-12-20T03:30:34;11.93;;;2.42;;
78322;SDS011;67583;50.616;-3.404;2023-12-20T03:32:59;9.63;;;2.35;;
78322;SDS011;67583;50.616;-3.404;2023-12-20T03:37:50;16.52;;;3.55;;
78322;SDS011;67583;50.616;-3.404;2023-12-20T03:40:16;15.68;;;2.70;;
78322;SDS011;67583;50.616;-3.404;2023-12-20T03:42:41;14.35;;;3.15;;
78322;SDS011;67583;50.616;-3.404;2023-12-20T03:45:06;17.88;;;3.08;;
78322;SDS011;67583;50.616;-3.404;2023-12-20T03:47:32;10.85;;;2.90;;
78322;SDS011;67583;50.616;-3.404;2023-12-20T03:49:58;9.68;;;2.15;;
78322;SDS011;67583;50.616;-3.404;2023-12-20T03:52:23;14.90;;;3.38;;
78322;SDS011;67583;50.616;-3.404;2023-12-20T03:54:48;10.68;;;2.33;;
78322;SDS011;67583;50.616;-3.404;2023-12-20T03:57:14;10.13;;;2.08;;
78322;SDS011;67583;50.616;-3.404;2023-12-20T03:59:39;14.32;;;2.55;;
78322;SDS011;67583;50.616;-3.404;2023-12-20T04:02:04;14.75;;;3.17;;
78322;SDS011;67583;50.616;-3.404;2023-12-20T04:04:30;14.40;;;3.50;;
78322;SDS011;67583;50.616;-3.404;2023-12-20T04:06:55;16.27;;;3.45;;
78322;SDS011;67583;50.616;-3.404;2023-12-20T04:09:21;20.35;;;3.70;;
78322;SDS011;67583;50.616;-3.404;2023-12-20T04:11:46;13.15;;;2.47;;
78322;SDS011;67583;50.616;-3.404;2023-12-20T04:14:11;13.20;;;3.60;;
78322;SDS011;67583;50.616;-3.404;2023-12-20T04:16:37;10.27;;;2.90;;
78322;SDS011;67583;50.616;-3.404;2023-12-20T04:19:04;12.18;;;2.80;;
78322;SDS011;67583;50.616;-3.404;2023-12-20T04:21:29;7.47;;;2.22;;
78322;SDS011;67583;50.616;-3.404;2023-12-20T04:23:54;13.13;;;2.80;;
78322;SDS011;67583;50.616;-3.404;2023-12-20T04:26:20;12.52;;;2.88;;
78322;SDS011;67583;50.616;-3.404;2023-12-20T04:28:45;14.10;;;2.92;;
78322;SDS011;67583;50.616;-3.404;2023-12-20T04:31:11;18.15;;;3.17;;
78322;SDS011;67583;50.616;-3.404;2023-12-20T04:33:36;8.35;;;2.80;;
78322;SDS011;67583;50.616;-3.404;2023-12-20T04:36:01;16.95;;;3.03;;
78322;SDS011;67583;50.616;-3.404;2023-12-20T04:38:27;12.02;;;2.58;;
78322;SDS011;67583;50.616;-3.404;2023-12-20T04:40:52;9.77;;;2.25;;
78322;SDS011;67583;50.616;-3.404;2023-12-20T04:43:18;8.65;;;2.72;;
78322;SDS011;67583;50.616;-3.404;2023-12-20T04:45:43;17.08;;;2.47;;
78322;SDS011;67583;50.616;-3.404;2023-12-20T04:48:08;12.35;;;2.75;;
78322;SDS011;67583;50.616;-3.404;2023-12-20T04:50:34;14.05;;;2.40;;
78322;SDS011;67583;50.616;-3.404;2023-12-20T04:52:59;6.32;;;2.28;;
78322;SDS011;67583;50.616;-3.404;2023-12-20T04:55:25;10.95;;;2.55;;
78322;SDS011;67583;50.616;-3.404;2023-12-20T04:57:50;12.93;;;2.50;;
78322;SDS011;67583;50.616;-3.404;2023-12-20T05:00:15;21.17;;;3.60;;
78322;SDS011;67583;50.616;-3.404;2023-12-20T05:02:41;11.20;;;3.47;;
78322;SDS011;67583;50.616;-3.404;2023-12-20T05:05:07;10.38;;;2.78;;
78322;SDS011;67583;50.616;-3.404;2023-12-20T05:07:32;8.20;;;2.65;;
78322;SDS011;67583;50.616;-3.404;2023-12-20T05:09:58;11.77;;;2.72;;
78322;SDS011;67583;50.616;-3.404;2023-12-20T05:12:24;10.18;;;2.28;;
78322;SDS011;67583;50.616;-3.404;2023-12-20T05:14:49;11.95;;;3.13;;
78322;SDS011;67583;50.616;-3.404;2023-12-20T05:17:16;9.52;;;2.50;;
78322;SDS011;67583;50.616;-3.404;2023-12-20T05:19:41;14.20;;;3.25;;
78322;SDS011;67583;50.616;-3.404;2023-12-20T05:22:06;13.57;;;2.30;;
78322;SDS011;67583;50.616;-3.404;2023-12-20T05:24:32;9.90;;;2.25;;
78322;SDS011;67583;50.616;-3.404;2023-12-20T05:26:57;11.18;;;2.45;;
78322;SDS011;67583;50.616;-3.404;2023-12-20T05:29:22;10.20;;;2.63;;
78322;SDS011;67583;50.616;-3.404;2023-12-20T05:31:48;12.63;;;2.58;;
78322;SDS011;67583;50.616;-3.404;2023-12-20T05:34:13;8.98;;;3.15;;
78322;SDS011;67583;50.616;-3.404;2023-12-20T05:36:39;9.20;;;2.17;;
78322;SDS011;67583;50.616;-3.404;2023-12-20T05:39:04;7.25;;;1.98;;
78322;SDS011;67583;50.616;-3.404;2023-12-20T05:41:30;15.30;;;2.72;;
78322;SDS011;67583;50.616;-3.404;2023-12-20T05:43:56;11.55;;;3.63;;
78322;SDS011;67583;50.616;-3.404;2023-12-20T05:46:23;11.38;;;2.20;;
78322;SDS011;67583;50.616;-3.404;2023-12-20T05:48:48;10.65;;;2.55;;
78322;SDS011;67583;50.616;-3.404;2023-12-20T05:51:14;12.77;;;3.08;;
78322;SDS011;67583;50.616;-3.404;2023-12-20T05:53:39;8.18;;;2.08;;
78322;SDS011;67583;50.616;-3.404;2023-12-20T05:56:05;10.70;;;3.53;;
78322;SDS011;67583;50.616;-3.404;2023-12-20T05:58:31;14.48;;;2.75;;
78322;SDS011;67583;50.616;-3.404;2023-12-20T06:00:58;17.73;;;3.47;;
78322;SDS011;67583;50.616;-3.404;2023-12-20T06:03:24;7.57;;;2.17;;
78322;SDS011;67583;50.616;-3.404;2023-12-20T06:05:49;5.60;;;2.20;;
78322;SDS011;67583;50.616;-3.404;2023-12-20T06:08:14;7.85;;;1.70;;
78322;SDS011;67583;50.616;-3.404;2023-12-20T06:10:40;10.30;;;2.35;;
78322;SDS011;67583;50.616;-3.404;2023-12-20T06:13:05;9.55;;;2.05;;
78322;SDS011;67583;50.616;-3.404;2023-12-20T06:15:32;11.68;;;2.40;;
78322;SDS011;67583;50.616;-3.404;2023-12-20T06:17:57;9.93;;;2.17;;
78322;SDS011;67583;50.616;-3.404;2023-12-20T06:20:23;12.70;;;2.80;;
78322;SDS011;67583;50.616;-3.404;2023-12-20T06:22:48;10.82;;;2.55;;
78322;SDS011;67583;50.616;-3.404;2023-12-20T06:25:14;6.18;;;1.83;;
78322;SDS011;67583;50.616;-3.404;2023-12-20T06:27:39;8.32;;;2.17;;
78322;SDS011;67583;50.616;-3.404;2023-12-20T06:30:06;6.68;;;1.95;;
78322;SDS011;67583;50.616;-3.404;2023-12-20T06:32:32;9.05;;;2.10;;
78322;SDS011;67583;50.616;-3.404;2023-12-20T06:34:59;7.53;;;2.20;;
78322;SDS011;67583;50.616;-3.404;2023-12-20T06:37:24;7.22;;;1.77;;
78322;SDS011;67583;50.616;-3.404;2023-12-20T06:39:50;10.73;;;2.85;;
78322;SDS011;67583;50.616;-3.404;2023-12-20T06:42:15;9.13;;;2.75;;
78322;SDS011;67583;50.616;-3.404;2023-12-20T06:44:41;10.88;;;2.58;;
78322;SDS011;67583;50.616;-3.404;2023-12-20T06:47:06;10.43;;;2.00;;
78322;SDS011;67583;50.616;-3.404;2023-12-20T06:49:32;8.77;;;2.30;;
78322;SDS011;67583;50.616;-3.404;2023-12-20T06:51:57;6.65;;;1.80;;
78322;SDS011;67583;50.616;-3.404;2023-12-20T06:54:23;10.38;;;2.13;;
78322;SDS011;67583;50.616;-3.404;2023-12-20T06:56:48;9.88;;;2.00;;
78322;SDS011;67583;50.616;-3.404;2023-12-20T06:59:13;10.35;;;2.10;;
78322;SDS011;67583;50.616;-3.404;2023-12-20T07:01:39;6.72;;;2.28;;
78322;SDS011;67583;50.616;-3.404;2023-12-20T07:04:04;5.75;;;1.80;;
78322;SDS011;67583;50.616;-3.404;2023-12-20T07:06:30;9.45;;;1.95;;
78322;SDS011;67583;50.616;-3.404;2023-12-20T07:08:55;7.85;;;2.00;;
78322;SDS011;67583;50.616;-3.404;2023-12-20T07:11:20;9.50;;;2.50;;
78322;SDS011;67583;50.616;-3.404;2023-12-20T07:13:46;11.50;;;2.22;;
78322;SDS011;67583;50.616;-3.404;2023-12-20T07:16:11;5.97;;;1.67;;
78322;SDS011;67583;50.616;-3.404;2023-12-20T07:18:38;9.27;;;1.80;;
78322;SDS011;67583;50.616;-3.404;2023-12-20T07:21:03;8.55;;;2.33;;
78322;SDS011;67583;50.616;-3.404;2023-12-20T07:23:29;7.82;;;2.10;;
78322;SDS011;67583;50.616;-3.404;2023-12-20T07:25:54;6.22;;;1.73;;
78322;SDS011;67583;50.616;-3.404;2023-12-20T07:28:20;4.82;;;1.60;;
78322;SDS011;67583;50.616;-3.404;2023-12-20T07:30:45;12.75;;;1.70;;
78322;SDS011;67583;50.616;-3.404;2023-12-20T07:33:10;7.00;;;2.10;;
78322;SDS011;67583;50.616;-3.404;2023-12-20T07:35:37;5.03;;;1.70;;
78322;SDS011;67583;50.616;-3.404;2023-12-20T07:38:02;5.38;;;1.67;;
78322;SDS011;67583;50.616;-3.404;2023-12-20T07:40:28;6.88;;;1.42;;
78322;SDS011;67583;50.616;-3.404;2023-12-20T07:42:53;4.47;;;1.10;;
78322;SDS011;67583;50.616;-3.404;2023-12-20T07:45:19;3.30;;;1.58;;
78322;SDS011;67583;50.616;-3.404;2023-12-20T07:47:44;4.50;;;1.45;;
78322;SDS011;67583;50.616;-3.404;2023-12-20T07:50:10;4.63;;;1.45;;
78322;SDS011;67583;50.616;-3.404;2023-12-20T07:55:00;4.67;;;1.30;;
78322;SDS011;67583;50.616;-3.404;2023-12-20T07:57:28;8.15;;;1.45;;
78322;SDS011;67583;50.616;-3.404;2023-12-20T07:59:54;9.70;;;2.03;;
78322;SDS011;67583;50.616;-3.404;2023-12-20T08:02:20;4.18;;;1.33;;
78322;SDS011;67583;50.616;-3.404;2023-12-20T08:04:45;6.63;;;1.92;;
78322;SDS011;67583;50.616;-3.404;2023-12-20T08:07:11;9.23;;;1.85;;
78322;SDS011;67583;50.616;-3.404;2023-12-20T08:12:01;5.47;;;1.35;;
78322;SDS011;67583;50.616;-3.404;2023-12-20T08:14:27;6.55;;;1.80;;
78322;SDS011;67583;50.616;-3.404;2023-12-20T08:16:53;4.70;;;1.80;;
78322;SDS011;67583;50.616;-3.404;2023-12-20T08:19:18;12.90;;;1.85;;
78322;SDS011;67583;50.616;-3.404;2023-12-20T08:21:44;6.60;;;1.40;;
78322;SDS011;67583;50.616;-3.404;2023-12-20T08:24:09;5.68;;;2.08;;
78322;SDS011;67583;50.616;-3.404;2023-12-20T08:26:35;10.88;;;3.30;;
78322;SDS011;67583;50.616;-3.404;2023-12-20T08:29:00;5.78;;;2.08;;
78322;SDS011;67583;50.616;-3.404;2023-12-20T08:31:25;10.20;;;1.95;;
78322;SDS011;67583;50.616;-3.404;2023-12-20T08:33:51;11.95;;;1.95;;
78322;SDS011;67583;50.616;-3.404;2023-12-20T08:36:18;6.30;;;2.40;;
78322;SDS011;67583;50.616;-3.404;2023-12-20T08:38:46;7.78;;;1.58;;
78322;SDS011;67583;50.616;-3.404;2023-12-20T08:41:11;7.65;;;2.83;;
78322;SDS011;67583;50.616;-3.404;2023-12-20T08:43:37;5.13;;;1.42;;
78322;SDS011;67583;50.616;-3.404;2023-12-20T08:46:05;7.90;;;1.50;;
78322;SDS011;67583;50.616;-3.404;2023-12-20T08:48:30;10.25;;;1.65;;
78322;SDS011;67583;50.616;-3.404;2023-12-20T08:50:56;10.00;;;1.90;;
78322;SDS011;67583;50.616;-3.404;2023-12-20T08:53:21;9.50;;;2.47;;
78322;SDS011;67583;50.616;-3.404;2023-12-20T08:55:46;6.20;;;1.75;;
78322;SDS011;67583;50.616;-3.404;2023-12-20T08:58:12;10.85;;;1.90;;
78322;SDS011;67583;50.616;-3.404;2023-12-20T09:00:38;7.10;;;1.65;;
78322;SDS011;67583;50.616;-3.404;2023-12-20T09:03:04;6.93;;;1.33;;
78322;SDS011;67583;50.616;-3.404;2023-12-20T09:05:30;9.50;;;2.30;;
78322;SDS011;67583;50.616;-3.404;2023-12-20T09:07:55;5.68;;;1.65;;
78322;SDS011;67583;50.616;-3.404;2023-12-20T09:10:21;6.10;;;1.70;;
78322;SDS011;67583;50.616;-3.404;2023-12-20T09:12:49;4.97;;;2.00;;
78322;SDS011;67583;50.616;-3.404;2023-12-20T09:15:16;4.80;;;1.40;;
78322;SDS011;67583;50.616;-3.404;2023-12-20T09:17:41;3.55;;;1.27;;
78322;SDS011;67583;50.616;-3.404;2023-12-20T09:20:07;4.68;;;1.77;;
78322;SDS011;67583;50.616;-3.404;2023-12-20T09:22:33;6.00;;;2.03;;
78322;SDS011;67583;50.616;-3.404;2023-12-20T09:24:59;8.82;;;1.80;;
78322;SDS011;67583;50.616;-3.404;2023-12-20T09:27:25;8.60;;;2.38;;
78322;SDS011;67583;50.616;-3.404;2023-12-20T09:29:51;2.03;;;1.08;;
78322;SDS011;67583;50.616;-3.404;2023-12-20T09:32:16;1.65;;;1.05;;
78322;SDS011;67583;50.616;-3.404;2023-12-20T09:34:41;2.63;;;1.23;;
78322;SDS011;67583;50.616;-3.404;2023-12-20T09:37:07;6.50;;;1.50;;
78322;SDS011;67583;50.616;-3.404;2023-12-20T09:39:32;2.97;;;1.30;;
78322;SDS011;67583;50.616;-3.404;2023-12-20T09:42:02;4.82;;;1.20;;
78322;SDS011;67583;50.616;-3.404;2023-12-20T09:44:29;6.72;;;2.05;;
78322;SDS011;67583;50.616;-3.404;2023-12-20T09:46:54;4.70;;;1.55;;
78322;SDS011;67583;50.616;-3.404;2023-12-20T09:49:21;6.00;;;1.45;;
78322;SDS011;67583;50.616;-3.404;2023-12-20T09:51:47;10.18;;;2.38;;
78322;SDS011;67583;50.616;-3.404;2023-12-20T09:54:19;5.78;;;1.52;;
78322;SDS011;67583;50.616;-3.404;2023-12-20T09:56:46;6.65;;;1.40;;
78322;SDS011;67583;50.616;-3.404;2023-12-20T09:59:11;5.28;;;1.30;;
78322;SDS011;67583;50.616;-3.404;2023-12-20T10:01:38;4.55;;;2.78;;
78322;SDS011;67583;50.616;-3.404;2023-12-20T10:04:05;4.43;;;1.15;;
78322;SDS011;67583;50.616;-3.404;2023-12-20T10:06:34;5.22;;;1.95;;
78322;SDS011;67583;50.616;-3.404;2023-12-20T10:09:02;7.13;;;1.65;;
78322;SDS011;67583;50.616;-3.404;2023-12-20T10:11:29;2.53;;;1.33;;
78322;SDS011;67583;50.616;-3.404;2023-12-20T10:13:58;9.20;;;1.73;;
78322;SDS011;67583;50.616;-3.404;2023-12-20T10:16:28;4.63;;;1.85;;
78322;SDS011;67583;50.616;-3.404;2023-12-20T10:18:54;3.47;;;1.17;;
78322;SDS011;67583;50.616;-3.404;2023-12-20T10:21:20;3.05;;;1.13;;
78322;SDS011;67583;50.616;-3.404;2023-12-20T10:23:46;7.38;;;1.48;;
78322;SDS011;67583;50.616;-3.404;2023-12-20T10:26:21;4.38;;;1.20;;
78322;SDS011;67583;50.616;-3.404;2023-12-20T10:28:55;5.72;;;1.30;;
78322;SDS011;67583;50.616;-3.404;2023-12-20T10:31:32;8.45;;;1.73;;
78322;SDS011;67583;50.616;-3.404;2023-12-20T10:33:58;3.42;;;1.60;;
78322;SDS011;67583;50.616;-3.404;2023-12-20T10:36:28;4.93;;;1.13;;
78322;SDS011;67583;50.616;-3.404;2023-12-20T10:38:55;3.85;;;1.77;;
78322;SDS011;67583;50.616;-3.404;2023-12-20T10:41:26;5.95;;;1.17;;
78322;SDS011;67583;50.616;-3.404;2023-12-20T10:43:59;3.85;;;1.33;;
78322;SDS011;67583;50.616;-3.404;2023-12-20T10:46:26;2.45;;;1.20;;
78322;SDS011;67583;50.616;-3.404;2023-12-20T10:48:53;8.07;;;1.70;;
78322;SDS011;67583;50.616;-3.404;2023-12-20T10:51:19;5.28;;;1.35;;
78322;SDS011;67583;50.616;-3.404;2023-12-20T10:53:46;4.72;;;1.48;;
78322;SDS011;67583;50.616;-3.404;2023-12-20T10:56:12;6.13;;;1.50;;
78322;SDS011;67583;50.616;-3.404;2023-12-20T10:58:41;4.53;;;1.10;;
78322;SDS011;67583;50.616;-3.404;2023-12-20T11:01:10;13.82;;;2.08;;
78322;SDS011;67583;50.616;-3.404;2023-12-20T11:03:37;5.65;;;1.52;;
78322;SDS011;67583;50.616;-3.404;2023-12-20T11:06:07;4.38;;;1.45;;
78322;SDS011;67583;50.616;-3.404;2023-12-20T11:08:36;3.13;;;1.45;;
78322;SDS011;67583;50.616;-3.404;2023-12-20T11:11:07;7.57;;;1.73;;
78322;SDS011;67583;50.616;-3.404;2023-12-20T11:13:40;3.47;;;1.13;;
78322;SDS011;67583;50.616;-3.404;2023-12-20T11:16:09;3.88;;;2.22;;
78322;SDS011;67583;50.616;-3.404;2023-12-20T11:18:35;4.85;;;1.52;;
78322;SDS011;67583;50.616;-3.404;2023-12-20T11:21:06;3.08;;;1.15;;
78322;SDS011;67583;50.616;-3.404;2023-12-20T11:23:32;6.63;;;1.63;;
78322;SDS011;67583;50.616;-3.404;2023-12-20T11:25:59;6.57;;;1.40;;
78322;SDS011;67583;50.616;-3.404;2023-12-20T11:28:25;1.85;;;1.02;;
78322;SDS011;67583;50.616;-3.404;2023-12-20T11:30:55;4.57;;;1.50;;
78322;SDS011;67583;50.616;-3.404;2023-12-20T11:33:26;8.15;;;1.50;;
78322;SDS011;67583;50.616;-3.404;2023-12-20T11:35:55;4.18;;;1.10;;
78322;SDS011;67583;50.616;-3.404;2023-12-20T11:38:21;3.42;;;1.40;;
78322;SDS011;67583;50.616;-3.404;2023-12-20T11:40:50;4.28;;;1.10;;
78322;SDS011;67583;50.616;-3.404;2023-12-20T11:43:36;2.00;;;1.15;;
78322;SDS011;67583;50.616;-3.404;2023-12-20T11:46:05;3.10;;;1.23;;
78322;SDS011;67583;50.616;-3.404;2023-12-20T11:48:32;2.13;;;0.85;;
78322;SDS011;67583;50.616;-3.404;2023-12-20T11:50:58;2.58;;;1.55;;
78322;SDS011;67583;50.616;-3.404;2023-12-20T11:53:24;6.80;;;2.17;;
78322;SDS011;67583;50.616;-3.404;2023-12-20T11:55:50;5.95;;;1.30;;
78322;SDS011;67583;50.616;-3.404;2023-12-20T11:58:15;4.30;;;1.38;;
78322;SDS011;67583;50.616;-3.404;2023-12-20T12:00:42;4.28;;;1.70;;
78322;SDS011;67583;50.616;-3.404;2023-12-20T12:03:14;6.30;;;1.88;;
78322;SDS011;67583;50.616;-3.404;2023-12-20T12:05:40;5.88;;;1.30;;
78322;SDS011;67583;50.616;-3.404;2023-12-20T12:08:05;5.60;;;2.40;;
78322;SDS011;67583;50.616;-3.404;2023-12-20T12:10:31;3.53;;;1.17;;
78322;SDS011;67583;50.616;-3.404;2023-12-20T12:12:56;5.55;;;1.85;;
78322;SDS011;67583;50.616;-3.404;2023-12-20T12:15:21;2.92;;;1.20;;
78322;SDS011;67583;50.616;-3.404;2023-12-20T12:17:56;5.03;;;1.50;;
78322;SDS011;67583;50.616;-3.404;2023-12-20T12:20:22;2.40;;;1.30;;
78322;SDS011;67583;50.616;-3.404;2023-12-20T12:23:01;4.15;;;1.30;;
78322;SDS011;67583;50.616;-3.404;2023-12-20T12:25:28;3.55;;;1.35;;
78322;SDS011;67583;50.616;-3.404;2023-12-20T12:27:56;4.65;;;1.13;;
78322;SDS011;67583;50.616;-3.404;2023-12-20T12:30:22;7.35;;;1.80;;
78322;SDS011;67583;50.616;-3.404;2023-12-20T12:32:47;5.25;;;1.67;;
78322;SDS011;67583;50.616;-3.404;2023-12-20T12:35:13;9.50;;;2.22;;
78322;SDS011;67583;50.616;-3.404;2023-12-20T12:37:39;5.93;;;1.52;;
78322;SDS011;67583;50.616;-3.404;2023-12-20T12:40:09;4.88;;;1.42;;
78322;SDS011;67583;50.616;-3.404;2023-12-20T12:42:36;8.40;;;1.40;;
78322;SDS011;67583;50.616;-3.404;2023-12-20T12:45:04;7.72;;;1.75;;
78322;SDS011;67583;50.616;-3.404;2023-12-20T12:47:30;7.18;;;1.48;;
78322;SDS011;67583;50.616;-3.404;2023-12-20T12:49:56;7.88;;;1.80;;
78322;SDS011;67583;50.616;-3.404;2023-12-20T12:52:21;5.35;;;2.38;;
78322;SDS011;67583;50.616;-3.404;2023-12-20T12:54:47;4.60;;;1.52;;
78322;SDS011;67583;50.616;-3.404;2023-12-20T12:57:13;5.93;;;1.73;;
78322;SDS011;67583;50.616;-3.404;2023-12-20T12:59:39;3.42;;;1.52;;
78322;SDS011;67583;50.616;-3.404;2023-12-20T13:02:04;5.95;;;1.60;;
78322;SDS011;67583;50.616;-3.404;2023-12-20T13:04:30;2.42;;;1.35;;
78322;SDS011;67583;50.616;-3.404;2023-12-20T13:06:55;6.95;;;1.65;;
78322;SDS011;67583;50.616;-3.404;2023-12-20T13:09:22;4.43;;;1.30;;
78322;SDS011;67583;50.616;-3.404;2023-12-20T13:11:48;6.38;;;2.15;;
78322;SDS011;67583;50.616;-3.404;2023-12-20T13:14:16;3.50;;;1.48;;
78322;SDS011;67583;50.616;-3.404;2023-12-20T13:16:41;5.43;;;1.90;;
78322;SDS011;67583;50.616;-3.404;2023-12-20T13:19:07;4.75;;;1.80;;
78322;SDS011;67583;50.616;-3.404;2023-12-20T13:21:33;5.25;;;1.50;;
78322;SDS011;67583;50.616;-3.404;2023-12-20T13:23:58;7.63;;;2.38;;
78322;SDS011;67583;50.616;-3.404;2023-12-20T13:26:24;9.43;;;2.47;;
78322;SDS011;67583;50.616;-3.404;2023-12-20T13:28:49;5.00;;;1.92;;
78322;SDS011;67583;50.616;-3.404;2023-12-20T13:31:15;8.60;;;2.38;;
78322;SDS011;67583;50.616;-3.404;2023-12-20T13:33:40;4.22;;;1.63;;
78322;SDS011;67583;50.616;-3.404;2023-12-20T13:36:06;7.60;;;2.03;;
78322;SDS011;67583;50.616;-3.404;2023-12-20T13:38:31;9.07;;;1.77;;
78322;SDS011;67583;50.616;-3.404;2023-12-20T13:40:57;9.43;;;1.90;;
78322;SDS011;67583;50.616;-3.404;2023-12-20T13:43:23;4.60;;;1.38;;
78322;SDS011;67583;50.616;-3.404;2023-12-20T13:45:49;4.93;;;1.58;;
78322;SDS011;67583;50.616;-3.404;2023-12-20T13:48:15;3.75;;;1.23;;
78322;SDS011;67583;50.616;-3.404;2023-12-20T13:50:41;9.20;;;1.92;;
78322;SDS011;67583;50.616;-3.404;2023-12-20T13:53:06;8.70;;;1.90;;
78322;SDS011;67583;50.616;-3.404;2023-12-20T13:55:32;4.07;;;1.30;;
78322;SDS011;67583;50.616;-3.404;2023-12-20T13:57:57;4.82;;;1.50;;
78322;SDS011;67583;50.616;-3.404;2023-12-20T14:00:23;8.25;;;1.60;;
78322;SDS011;67583;50.616;-3.404;2023-12-20T14:02:48;8.90;;;2.00;;
78322;SDS011;67583;50.616;-3.404;2023-12-20T14:05:15;6.00;;;1.73;;
78322;SDS011;67583;50.616;-3.404;2023-12-20T14:07:42;8.27;;;2.72;;
78322;SDS011;67583;50.616;-3.404;2023-12-20T14:10:10;9.32;;;2.58;;
78322;SDS011;67583;50.616;-3.404;2023-12-20T14:12:38;4.22;;;1.73;;
78322;SDS011;67583;50.616;-3.404;2023-12-20T14:15:04;6.22;;;1.88;;
78322;SDS011;67583;50.616;-3.404;2023-12-20T14:17:34;7.22;;;2.10;;
78322;SDS011;67583;50.616;-3.404;2023-12-20T14:19:59;5.65;;;1.60;;
78322;SDS011;67583;50.616;-3.404;2023-12-20T14:22:25;7.00;;;2.13;;
78322;SDS011;67583;50.616;-3.404;2023-12-20T14:24:54;9.07;;;1.80;;
78322;SDS011;67583;50.616;-3.404;2023-12-20T14:27:19;9.00;;;2.25;;
78322;SDS011;67583;50.616;-3.404;2023-12-20T14:29:48;9.68;;;2.28;;
78322;SDS011;67583;50.616;-3.404;2023-12-20T14:32:14;9.68;;;2.50;;
78322;SDS011;67583;50.616;-3.404;2023-12-20T14:34:40;7.53;;;2.10;;
78322;SDS011;67583;50.616;-3.404;2023-12-20T14:37:05;6.90;;;2.78;;
78322;SDS011;67583;50.616;-3.404;2023-12-20T14:39:31;13.80;;;2.35;;
78322;SDS011;67583;50.616;-3.404;2023-12-20T14:41:56;9.27;;;2.80;;
78322;SDS011;67583;50.616;-3.404;2023-12-20T14:44:21;8.25;;;2.47;;
78322;SDS011;67583;50.616;-3.404;2023-12-20T14:46:47;6.35;;;2.67;;
78322;SDS011;67583;50.616;-3.404;2023-12-20T14:49:12;8.40;;;2.38;;
78322;SDS011;67583;50.616;-3.404;2023-12-20T14:51:39;11.88;;;2.70;;
78322;SDS011;67583;50.616;-3.404;2023-12-20T14:54:04;13.77;;;2.63;;
78322;SDS011;67583;50.616;-3.404;2023-12-20T14:56:34;12.07;;;4.10;;
78322;SDS011;67583;50.616;-3.404;2023-12-20T14:59:00;12.07;;;3.10;;
78322;SDS011;67583;50.616;-3.404;2023-12-20T15:01:25;17.33;;;2.83;;
78322;SDS011;67583;50.616;-3.404;2023-12-20T15:03:50;13.38;;;3.25;;
78322;SDS011;67583;50.616;-3.404;2023-12-20T15:06:16;12.48;;;3.20;;